createdAt,value
2023-05-06T00:01:04.965Z,66.51
2023-05-06T00:03:36.939Z,66.58
2023-05-06T00:06:09.552Z,66.39
2023-05-06T00:08:40.692Z,66.26
2023-05-06T00:11:12.113Z,66.23
2023-05-06T00:13:43.239Z,65.97
2023-05-06T00:16:14.647Z,66.15
2023-05-06T00:18:46.518Z,66.03
2023-05-06T00:21:18.106Z,66.13
2023-05-06T00:23:49.259Z,65.95
2023-05-06T00:26:21.784Z,65.95
2023-05-06T00:28:53.214Z,66.02
2023-05-06T00:31:24.706Z,65.91
2023-05-06T00:33:56.779Z,65.74
2023-05-06T00:36:29.301Z,65.78
2023-05-06T00:39:01.041Z,65.73
2023-05-06T00:41:35.327Z,65.72
2023-05-06T00:44:07.161Z,65.83
2023-05-06T00:46:38.854Z,65.72
2023-05-06T00:49:10.317Z,65.70
2023-05-06T00:51:41.689Z,65.78
2023-05-06T00:54:13.560Z,65.73
2023-05-06T00:56:45.111Z,65.74
2023-05-06T00:59:16.987Z,65.55
2023-05-06T01:01:49.022Z,65.58
2023-05-06T01:04:20.163Z,65.41
2023-05-06T01:07:03.194Z,65.24
2023-05-06T01:09:43.043Z,65.35
2023-05-06T01:12:25.728Z,65.15
2023-05-06T01:15:06.791Z,65.13
2023-05-06T01:17:41.230Z,64.98
2023-05-06T01:20:15.404Z,64.85
2023-05-06T01:22:47.444Z,64.69
2023-05-06T01:25:23.754Z,64.78
2023-05-06T01:27:55.343Z,64.72
2023-05-06T01:30:31.373Z,64.64
2023-05-06T01:33:11.860Z,64.52
2023-05-06T01:35:55.277Z,64.48
2023-05-06T01:38:36.176Z,64.45
2023-05-06T01:41:09.563Z,64.20
2023-05-06T01:43:45.057Z,64.15
2023-05-06T01:46:20.498Z,63.96
2023-05-06T01:48:55.017Z,64.15
2023-05-06T01:51:28.100Z,64.10
2023-05-06T01:53:59.699Z,64.01
2023-05-06T01:56:33.918Z,63.87
2023-05-06T01:59:05.436Z,63.97
2023-05-06T02:01:36.802Z,63.79
2023-05-06T02:04:08.426Z,63.91
2023-05-06T02:06:40.578Z,63.88
2023-05-06T02:09:12.238Z,63.73
2023-05-06T02:11:47.815Z,63.71
2023-05-06T02:14:18.912Z,63.67
2023-05-06T02:16:52.420Z,63.61
2023-05-06T02:19:24.974Z,63.48
2023-05-06T02:21:56.774Z,63.38
2023-05-06T02:24:28.321Z,63.44
2023-05-06T02:26:59.556Z,63.44
2023-05-06T02:29:30.765Z,63.30
2023-05-06T02:32:02.211Z,63.38
2023-05-06T02:34:34.646Z,63.32
2023-05-06T02:37:06.815Z,63.26
2023-05-06T02:39:38.462Z,63.20
2023-05-06T02:42:11.246Z,63.15
2023-05-06T02:44:43.441Z,63.27
2023-05-06T02:47:15.089Z,63.24
2023-05-06T02:49:46.335Z,63.25
2023-05-06T02:52:17.826Z,63.15
2023-05-06T02:54:49.180Z,63.20
2023-05-06T02:57:20.783Z,63.27
2023-05-06T02:59:52.515Z,63.07
2023-05-06T03:02:23.896Z,63.07
2023-05-06T03:04:55.208Z,63.06
2023-05-06T03:07:26.481Z,62.92
2023-05-06T03:09:58.229Z,63.05
2023-05-06T03:12:29.651Z,62.90
2023-05-06T03:15:01.192Z,62.82
2023-05-06T03:17:33.120Z,62.91
2023-05-06T03:20:08.333Z,62.87
2023-05-06T03:22:42.366Z,62.82
2023-05-06T03:25:14.032Z,62.79
2023-05-06T03:27:45.960Z,62.87
2023-05-06T03:30:22.128Z,62.76
2023-05-06T03:32:56.359Z,62.85
2023-05-06T03:35:33.466Z,62.91
2023-05-06T03:38:05.397Z,62.76
2023-05-06T03:40:43.070Z,62.59
2023-05-06T03:43:14.447Z,62.56
2023-05-06T03:45:46.927Z,62.66
2023-05-06T03:48:18.790Z,62.62
2023-05-06T03:50:50.544Z,62.70
2023-05-06T03:53:22.498Z,62.30
2023-05-06T03:55:54.179Z,62.36
2023-05-06T03:58:26.622Z,62.41
2023-05-06T04:01:01.142Z,62.45
2023-05-06T04:03:34.355Z,62.52
2023-05-06T04:06:07.713Z,62.53
2023-05-06T04:08:38.943Z,62.41
2023-05-06T04:11:10.663Z,62.39
2023-05-06T04:13:42.956Z,62.51
2023-05-06T04:16:17.743Z,62.47
2023-05-06T04:18:49.676Z,62.60
2023-05-06T04:21:21.457Z,62.62
2023-05-06T04:23:57.916Z,62.56
2023-05-06T04:26:36.804Z,62.49
2023-05-06T04:29:09.681Z,62.62
2023-05-06T04:31:46.575Z,62.57
2023-05-06T04:34:18.372Z,62.43
2023-05-06T04:36:51.469Z,62.36
2023-05-06T04:39:32.037Z,62.35
2023-05-06T04:42:03.628Z,62.43
2023-05-06T04:44:41.460Z,62.42
2023-05-06T04:47:13.453Z,62.44
2023-05-06T04:49:46.635Z,62.42
2023-05-06T04:52:18.261Z,62.41
2023-05-06T04:54:49.601Z,62.53
2023-05-06T04:57:21.301Z,62.79
2023-05-06T04:59:53.443Z,62.45
2023-05-06T05:02:25.428Z,62.05
2023-05-06T05:04:56.651Z,61.93
2023-05-06T05:07:28.273Z,61.77
2023-05-06T05:09:59.726Z,61.82
2023-05-06T05:12:32.619Z,61.85
2023-05-06T05:15:07.061Z,61.79
2023-05-06T05:17:38.929Z,61.32
2023-05-06T05:20:13.086Z,61.38
2023-05-06T05:22:44.227Z,61.47
2023-05-06T05:25:15.502Z,61.37
2023-05-06T05:27:47.023Z,60.98
2023-05-06T05:30:19.055Z,60.94
2023-05-06T05:32:50.934Z,61.01
2023-05-06T05:35:22.767Z,60.82
2023-05-06T05:37:55.261Z,60.81
2023-05-06T05:40:27.625Z,60.80
2023-05-06T05:42:59.578Z,60.67
2023-05-06T05:45:36.509Z,60.47
2023-05-06T05:48:08.563Z,60.53
2023-05-06T05:50:40.119Z,60.56
2023-05-06T05:53:11.604Z,60.30
2023-05-06T05:55:43.127Z,60.14
2023-05-06T05:58:14.796Z,60.13
2023-05-06T06:00:47.307Z,60.13
2023-05-06T06:03:21.100Z,60.06
2023-05-06T06:05:55.674Z,59.85
2023-05-06T06:08:30.162Z,59.61
2023-05-06T06:11:02.150Z,59.78
2023-05-06T06:13:39.069Z,59.68
2023-05-06T06:16:11.953Z,59.61
2023-05-06T06:18:43.542Z,59.46
2023-05-06T06:21:15.379Z,59.53
2023-05-06T06:23:46.773Z,59.51
2023-05-06T06:26:18.739Z,59.40
2023-05-06T06:28:50.439Z,59.43
2023-05-06T06:31:21.990Z,59.09
2023-05-06T06:33:53.544Z,59.22
2023-05-06T06:36:25.912Z,59.21
2023-05-06T06:38:57.348Z,59.12
2023-05-06T06:41:29.942Z,59.09
2023-05-06T06:44:01.588Z,59.25
2023-05-06T06:46:34.997Z,59.26
2023-05-06T06:49:06.795Z,59.31
2023-05-06T06:51:38.123Z,58.98
2023-05-06T06:54:09.557Z,58.61
2023-05-06T06:56:40.881Z,58.29
2023-05-06T06:59:12.163Z,58.15
2023-05-06T07:01:43.984Z,57.86
2023-05-06T07:04:15.342Z,57.38
2023-05-06T07:06:47.154Z,57.60
2023-05-06T07:09:19.041Z,57.09
2023-05-06T07:11:50.182Z,57.11
2023-05-06T07:14:22.096Z,56.79
2023-05-06T07:16:53.455Z,56.90
2023-05-06T07:19:25.301Z,57.33
2023-05-06T07:21:57.148Z,57.29
2023-05-06T07:24:28.791Z,56.99
2023-05-06T07:26:59.962Z,56.92
2023-05-06T07:29:31.537Z,56.71
2023-05-06T07:32:03.240Z,57.09
2023-05-06T07:34:36.222Z,56.95
2023-05-06T07:37:08.454Z,57.07
2023-05-06T07:39:39.660Z,57.12
2023-05-06T07:42:13.264Z,56.97
2023-05-06T07:44:44.743Z,56.86
2023-05-06T07:47:28.524Z,57.09
2023-05-06T07:50:01.187Z,56.90
2023-05-06T07:52:32.608Z,56.99
2023-05-06T07:55:04.433Z,57.09
2023-05-06T07:57:35.745Z,56.84
2023-05-06T08:00:10.062Z,56.89
2023-05-06T08:02:46.895Z,57.04
2023-05-06T08:05:18.370Z,57.07
2023-05-06T08:07:50.721Z,56.95
2023-05-06T08:10:22.407Z,56.90
2023-05-06T08:12:53.944Z,56.98
2023-05-06T08:15:25.896Z,57.01
2023-05-06T08:18:02.134Z,57.23
2023-05-06T08:20:38.752Z,57.36
2023-05-06T08:23:10.187Z,57.30
2023-05-06T08:25:41.609Z,57.55
2023-05-06T08:28:12.908Z,57.64
2023-05-06T08:30:47.627Z,57.59
2023-05-06T08:33:20.231Z,57.44
2023-05-06T08:35:52.705Z,57.46
2023-05-06T08:38:24.328Z,57.39
2023-05-06T08:40:56.277Z,57.39
2023-05-06T08:43:31.975Z,57.54
2023-05-06T08:46:03.448Z,57.55
2023-05-06T08:48:35.164Z,57.40
2023-05-06T08:51:08.230Z,57.36
2023-05-06T08:53:41.647Z,57.64
2023-05-06T08:56:15.081Z,57.84
2023-05-06T08:58:48.384Z,57.99
2023-05-06T09:01:20.375Z,57.98
2023-05-06T09:03:53.031Z,58.07
2023-05-06T09:06:27.447Z,58.16
2023-05-06T09:08:58.970Z,58.36
2023-05-06T09:11:32.030Z,58.41
2023-05-06T09:14:14.629Z,58.47
2023-05-06T09:16:49.939Z,58.89
2023-05-06T09:19:23.750Z,59.01
2023-05-06T09:21:54.981Z,59.07
2023-05-06T09:24:27.454Z,58.98
2023-05-06T09:26:59.345Z,58.96
2023-05-06T09:29:30.713Z,58.89
2023-05-06T09:32:10.436Z,58.73
2023-05-06T09:34:46.905Z,58.81
2023-05-06T09:37:18.296Z,58.57
2023-05-06T09:39:50.201Z,58.63
2023-05-06T09:42:23.145Z,58.50
2023-05-06T09:44:58.139Z,58.59
2023-05-06T09:47:37.689Z,58.45
2023-05-06T09:50:15.134Z,58.24
2023-05-06T09:52:49.687Z,58.29
2023-05-06T09:55:23.880Z,58.26
2023-05-06T09:57:56.116Z,58.26
2023-05-06T10:00:29.193Z,58.17
2023-05-06T10:03:02.125Z,57.98
2023-05-06T10:05:35.228Z,58.03
2023-05-06T10:08:08.939Z,57.76
2023-05-06T10:10:43.524Z,57.74
2023-05-06T10:13:16.246Z,57.86
2023-05-06T10:15:49.161Z,57.74
2023-05-06T10:18:22.228Z,57.70
2023-05-06T10:20:55.431Z,57.61
2023-05-06T10:23:38.067Z,57.57
2023-05-06T10:26:12.289Z,57.49
2023-05-06T10:28:46.987Z,57.25
2023-05-06T10:31:19.320Z,57.29
2023-05-06T10:33:54.347Z,57.39
2023-05-06T10:36:28.564Z,57.57
2023-05-06T10:39:03.673Z,57.62
2023-05-06T10:41:37.582Z,57.66
2023-05-06T10:44:10.235Z,57.65
2023-05-06T10:49:41.901Z,57.85
2023-05-06T10:52:19.673Z,57.82
2023-05-06T10:54:54.724Z,57.67
2023-05-06T10:57:27.536Z,57.60
2023-05-06T10:59:59.002Z,57.72
2023-05-06T11:02:33.371Z,57.62
2023-05-06T11:05:06.028Z,57.70
2023-05-06T11:07:38.032Z,57.57
2023-05-06T11:10:13.852Z,57.51
2023-05-06T11:12:52.902Z,57.16
2023-05-06T11:15:40.258Z,57.53
2023-05-06T11:18:46.571Z,57.53
2023-05-06T11:21:43.641Z,57.60
2023-05-06T11:24:23.581Z,57.47
2023-05-06T11:26:55.763Z,57.43
2023-05-06T11:29:27.972Z,57.46
2023-05-06T11:32:00.328Z,57.46
2023-05-06T11:34:33.152Z,57.50
2023-05-06T11:37:06.230Z,57.49
2023-05-06T11:39:40.934Z,57.17
2023-05-06T11:42:13.299Z,57.19
2023-05-06T11:44:44.550Z,57.01
2023-05-06T11:47:17.879Z,56.95
2023-05-06T11:49:52.162Z,56.83
2023-05-06T11:52:24.152Z,56.50
2023-05-06T11:54:55.738Z,56.94
2023-05-06T11:57:28.094Z,56.91
2023-05-06T11:59:59.944Z,56.82
2023-05-06T12:02:32.165Z,56.73
2023-05-06T12:05:06.755Z,56.88
2023-05-06T12:07:39.421Z,57.07
2023-05-06T12:10:12.946Z,57.03
2023-05-06T12:12:46.726Z,56.86
2023-05-06T12:15:19.039Z,56.95
2023-05-06T12:17:50.722Z,56.85
2023-05-06T12:20:24.210Z,56.82
2023-05-06T12:23:10.162Z,56.77
2023-05-06T12:25:43.089Z,56.68
2023-05-06T12:28:22.388Z,56.64
2023-05-06T12:30:53.840Z,56.71
2023-05-06T12:33:26.011Z,56.75
2023-05-06T12:36:10.107Z,56.80
2023-05-06T12:38:51.032Z,56.74
2023-05-06T12:41:23.653Z,56.46
2023-05-06T12:43:56.741Z,56.54
2023-05-06T12:46:28.507Z,56.60
2023-05-06T12:49:01.899Z,56.45
2023-05-06T12:51:33.998Z,56.62
2023-05-06T12:54:26.848Z,56.67
2023-05-06T12:56:58.994Z,56.40
2023-05-06T12:59:30.848Z,56.57
2023-05-06T13:02:03.899Z,56.55
2023-05-06T13:04:35.164Z,56.42
2023-05-06T13:07:06.720Z,56.61
2023-05-06T13:09:38.650Z,56.76
2023-05-06T13:12:11.115Z,56.58
2023-05-06T13:14:42.561Z,56.74
2023-05-06T13:17:14.769Z,56.90
2023-05-06T13:19:47.091Z,56.89
2023-05-06T13:22:19.150Z,56.99
2023-05-06T13:24:50.829Z,56.84
2023-05-06T13:27:22.464Z,57.14
2023-05-06T13:32:38.915Z,57.38
2023-05-06T13:35:12.094Z,57.58
2023-05-06T13:37:43.926Z,57.66
2023-05-06T13:40:16.561Z,57.89
2023-05-06T13:42:47.465Z,57.78
2023-05-06T13:45:18.594Z,57.82
2023-05-06T13:47:50.032Z,58.06
2023-05-06T13:50:22.176Z,58.42
2023-05-06T13:52:53.648Z,58.50
2023-05-06T13:55:25.218Z,58.50
2023-05-06T13:57:56.888Z,58.34
2023-05-06T14:00:30.808Z,58.50
2023-05-06T14:03:02.441Z,58.47
2023-05-06T14:05:33.901Z,58.47
2023-05-06T14:08:05.951Z,58.45
2023-05-06T14:10:37.692Z,58.33
2023-05-06T14:13:09.285Z,58.14
2023-05-06T14:15:40.622Z,58.22
2023-05-06T14:18:12.067Z,58.10
2023-05-06T14:20:43.585Z,58.04
2023-05-06T14:23:15.228Z,58.05
2023-05-06T14:25:46.857Z,58.16
2023-05-06T14:28:18.535Z,58.12
2023-05-06T14:30:51.517Z,58.29
2023-05-06T14:33:26.668Z,58.31
2023-05-06T14:35:58.482Z,58.42
2023-05-06T14:38:31.270Z,58.49
2023-05-06T14:41:02.872Z,58.39
2023-05-06T14:43:34.868Z,58.65
2023-05-06T14:46:06.507Z,58.59
2023-05-06T14:48:38.033Z,58.62
2023-05-06T14:51:09.948Z,58.81
2023-05-06T14:53:41.566Z,58.96
2023-05-06T14:56:13.955Z,58.85
2023-05-06T14:58:45.539Z,58.98
2023-05-06T15:01:16.628Z,58.98
2023-05-06T15:03:50.820Z,59.03
2023-05-06T15:06:22.409Z,59.05
2023-05-06T15:08:54.289Z,59.00
2023-05-06T15:11:25.758Z,58.95
2023-05-06T15:13:57.590Z,59.11
2023-05-06T15:16:29.175Z,59.05
2023-05-06T15:19:00.918Z,58.94
2023-05-06T15:21:32.613Z,59.02
2023-05-06T15:24:05.249Z,59.09
2023-05-06T15:26:37.323Z,59.07
2023-05-06T15:29:08.900Z,59.03
2023-05-06T15:31:41.202Z,59.14
2023-05-06T15:34:14.066Z,59.16
2023-05-06T15:36:45.615Z,59.13
2023-05-06T15:39:17.648Z,59.14
2023-05-06T15:41:49.557Z,59.18
2023-05-06T15:44:21.284Z,59.17
2023-05-06T15:46:53.102Z,59.13
2023-05-06T15:52:01.067Z,59.34
2023-05-06T15:54:33.679Z,59.40
2023-05-06T15:57:07.960Z,59.28
2023-05-06T15:59:39.789Z,59.29
2023-05-06T16:02:26.811Z,59.07
2023-05-06T16:04:59.107Z,59.19
2023-05-06T16:07:31.052Z,59.20
2023-05-06T16:10:02.402Z,59.25
2023-05-06T16:12:34.032Z,59.28
2023-05-06T16:15:05.708Z,59.25
2023-05-06T16:17:38.576Z,59.31
2023-05-06T16:20:12.867Z,59.28
2023-05-06T16:22:50.574Z,59.36
2023-05-06T16:25:22.047Z,59.42
2023-05-06T16:27:53.872Z,59.33
2023-05-06T16:30:25.719Z,59.01
2023-05-06T16:32:57.523Z,58.80
2023-05-06T16:35:30.248Z,58.81
2023-05-06T16:38:03.119Z,58.72
2023-05-06T16:40:40.913Z,58.95
2023-05-06T16:43:12.381Z,59.17
2023-05-06T16:45:45.773Z,59.08
2023-05-06T16:48:18.104Z,59.27
2023-05-06T16:50:49.938Z,59.20
2023-05-06T16:53:21.628Z,59.24
2023-05-06T16:55:52.971Z,59.34
2023-05-06T16:58:24.464Z,59.26
2023-05-06T17:00:55.684Z,59.45
2023-05-06T17:03:27.118Z,59.60
2023-05-06T17:05:58.311Z,59.70
2023-05-06T17:08:35.698Z,59.70
2023-05-06T17:11:09.255Z,59.63
2023-05-06T17:13:40.478Z,59.68
2023-05-06T17:16:11.954Z,59.62
2023-05-06T17:18:43.304Z,59.62
2023-05-06T17:21:16.080Z,59.74
2023-05-06T17:23:47.450Z,59.94
2023-05-06T17:26:19.203Z,59.75
2023-05-06T17:28:51.095Z,59.97
2023-05-06T17:31:22.763Z,59.91
2023-05-06T17:33:54.619Z,59.80
2023-05-06T17:36:26.557Z,59.98
2023-05-06T17:39:04.944Z,60.10
2023-05-06T17:41:36.906Z,59.96
2023-05-06T17:44:08.448Z,60.09
2023-05-06T17:46:40.368Z,60.14
2023-05-06T17:49:11.840Z,60.11
2023-05-06T17:51:45.775Z,60.12
2023-05-06T17:54:17.243Z,60.34
2023-05-06T17:56:50.842Z,60.37
2023-05-06T17:59:25.284Z,60.51
2023-05-06T18:01:57.587Z,60.58
2023-05-06T18:04:29.325Z,60.69
2023-05-06T18:07:00.803Z,60.73
2023-05-06T18:09:32.455Z,60.81
2023-05-06T18:12:04.097Z,60.84
2023-05-06T18:14:35.810Z,60.87
2023-05-06T18:17:07.122Z,60.83
2023-05-06T18:19:39.285Z,60.92
2023-05-06T18:22:10.581Z,60.91
2023-05-06T18:24:42.098Z,61.14
2023-05-06T18:27:14.276Z,61.10
2023-05-06T18:29:45.938Z,61.18
2023-05-06T18:32:17.909Z,61.17
2023-05-06T18:34:49.427Z,61.29
2023-05-06T18:37:21.230Z,61.56
2023-05-06T18:39:52.780Z,61.57
2023-05-06T18:42:25.533Z,61.33
2023-05-06T18:44:56.789Z,61.29
2023-05-06T18:47:28.867Z,61.32
2023-05-06T18:50:00.874Z,61.24
2023-05-06T18:52:32.605Z,61.21
2023-05-06T18:55:04.247Z,61.35
2023-05-06T18:57:35.834Z,61.45
2023-05-06T19:00:09.455Z,61.56
2023-05-06T19:02:41.040Z,61.59
2023-05-06T19:05:13.668Z,61.56
2023-05-06T19:07:45.992Z,61.59
2023-05-06T19:10:17.300Z,61.50
2023-05-06T19:12:49.020Z,61.67
2023-05-06T19:15:20.436Z,61.67
2023-05-06T19:17:51.871Z,61.61
2023-05-06T19:20:23.457Z,61.64
2023-05-06T19:22:55.105Z,61.71
2023-05-06T19:25:27.197Z,61.61
2023-05-06T19:27:58.618Z,61.70
2023-05-06T19:30:32.343Z,61.61
2023-05-06T19:33:04.777Z,61.61
2023-05-06T19:35:37.601Z,61.61
2023-05-06T19:38:10.745Z,61.76
2023-05-06T19:40:42.244Z,61.62
2023-05-06T19:43:13.772Z,61.77
2023-05-06T19:45:45.025Z,61.58
2023-05-06T19:48:17.905Z,61.75
2023-05-06T19:50:49.457Z,61.62
2023-05-06T19:53:22.321Z,61.80
2023-05-06T19:55:55.541Z,61.65
2023-05-06T19:58:27.101Z,61.58
2023-05-06T20:00:58.986Z,61.48
2023-05-06T20:03:30.765Z,61.59
2023-05-06T20:06:03.103Z,61.63
2023-05-06T20:08:35.623Z,61.60
2023-05-06T20:11:07.205Z,61.76
2023-05-06T20:13:38.584Z,61.99
2023-05-06T20:16:10.572Z,62.23
2023-05-06T20:18:43.028Z,62.55
2023-05-06T20:21:16.311Z,62.36
2023-05-06T20:23:47.770Z,62.70
2023-05-06T20:26:19.532Z,62.94
2023-05-06T20:28:52.494Z,63.05
2023-05-06T20:31:24.006Z,63.13
2023-05-06T20:33:56.271Z,63.30
2023-05-06T20:36:28.586Z,63.39
2023-05-06T20:39:00.634Z,63.34
2023-05-06T20:41:33.214Z,63.45
2023-05-06T20:44:05.109Z,63.35
2023-05-06T20:46:36.827Z,63.38
2023-05-06T20:49:09.276Z,63.44
2023-05-06T20:51:40.875Z,63.40
2023-05-06T20:54:12.558Z,63.43
2023-05-06T20:56:44.401Z,63.57
2023-05-06T20:59:16.931Z,63.76
2023-05-06T21:01:49.032Z,63.86
2023-05-06T21:04:20.840Z,63.97
2023-05-06T21:06:52.338Z,64.08
2023-05-06T21:09:24.105Z,64.04
2023-05-06T21:11:57.898Z,64.03
2023-05-06T21:14:29.244Z,63.94
2023-05-06T21:17:01.262Z,63.79
2023-05-06T21:19:32.770Z,63.83
2023-05-06T21:22:04.339Z,63.73
2023-05-06T21:24:35.999Z,63.69
2023-05-06T21:27:07.487Z,63.56
2023-05-06T21:29:39.306Z,63.51
2023-05-06T21:32:12.395Z,63.49
2023-05-06T21:34:44.014Z,63.27
2023-05-06T21:37:15.719Z,63.10
2023-05-06T21:39:47.278Z,63.03
2023-05-06T21:42:18.595Z,63.05
2023-05-06T21:44:49.672Z,63.03
2023-05-06T21:47:21.346Z,63.01
2023-05-06T21:49:52.598Z,62.98
2023-05-06T21:52:23.682Z,62.76
2023-05-06T21:54:56.488Z,62.75
2023-05-06T21:57:27.949Z,62.85
2023-05-06T21:59:59.090Z,62.72
2023-05-06T22:02:30.505Z,62.93
2023-05-06T22:05:02.194Z,62.84
2023-05-06T22:07:34.326Z,62.94
2023-05-06T22:10:06.541Z,62.86
2023-05-06T22:12:38.156Z,62.89
2023-05-06T22:15:11.418Z,62.87
2023-05-06T22:17:43.517Z,62.81
2023-05-06T22:20:17.583Z,62.90
2023-05-06T22:22:51.633Z,62.81
2023-05-06T22:25:23.238Z,62.82
2023-05-06T22:27:54.579Z,62.79
2023-05-06T22:30:26.998Z,62.69
2023-05-06T22:32:58.629Z,62.66
2023-05-06T22:35:30.997Z,62.64
2023-05-06T22:38:02.347Z,62.50
2023-05-06T22:40:34.119Z,62.54
2023-05-06T22:43:05.769Z,62.35
2023-05-06T22:45:37.443Z,62.39
2023-05-06T22:48:10.342Z,62.48
2023-05-06T22:50:42.431Z,62.29
2023-05-06T22:53:15.680Z,62.40
2023-05-06T22:55:47.784Z,62.38
2023-05-06T22:58:19.268Z,62.43
2023-05-06T23:00:50.811Z,62.50
2023-05-06T23:03:22.832Z,62.38
2023-05-06T23:05:54.397Z,62.17
2023-05-06T23:08:26.070Z,62.25
2023-05-06T23:10:57.632Z,62.20
2023-05-06T23:13:31.361Z,62.24
2023-05-06T23:16:02.700Z,62.32
2023-05-06T23:18:34.725Z,62.27
2023-05-06T23:21:06.477Z,62.33
2023-05-06T23:23:38.552Z,62.44
2023-05-06T23:26:09.625Z,62.36
2023-05-06T23:28:41.285Z,62.27
2023-05-06T23:31:12.602Z,62.28
2023-05-06T23:33:44.188Z,62.30
2023-05-06T23:36:15.784Z,62.28
2023-05-06T23:38:46.872Z,62.28
2023-05-06T23:41:18.733Z,62.27
2023-05-06T23:43:49.943Z,62.16
2023-05-06T23:46:21.878Z,62.10
2023-05-06T23:48:53.678Z,62.08
2023-05-06T23:51:25.100Z,62.09
2023-05-06T23:53:56.631Z,61.99
2023-05-06T23:56:28.463Z,62.06
2023-05-06T23:58:59.976Z,61.99
